ウラジオストク の空港の天気 - METARとTAF

ウラジオストク空港 ( UHWW / VVO ) - ロシア ウラジオストク
飛行場実況気象(Metar)
観測時間10/18 13:30 VLAT (10/18 03:30 UTC)
風向・風速北 7m/s
視程10km以上
天気現象
なし
気温12℃
湿度28%
気圧1022hPa
METARUHWW 180330Z 35007MPS 9999 NSC 12/M06 Q1022 R25L/0///70 NOSIG RMK QFE765
過去の天気等 Google飛行場航空写真 Wunderground天気予報

過去48時間のMETAR

飛行場予報(TAF)
発表時間: 10/18 12:00 VLAT (10/18 02:00 UTC)
予報対象時間: 18日13時 VLAT ~ 19日13時 VLAT
風向・風速北 6m/s
視程10km以上
全天の4割程度の雲 雲底高度 910m
18日13時 VLAT ~ 18日19時 VLAT に一時的に
風向・風速北 10m/s
全天の4割程度の積乱雲 雲底高度 610m
18日20時 VLAT から
風向・風速北西 3m/s
視程4000m
天気現象煙霧
なし
19日10時 VLAT ~ 19日11時 VLAT に徐々に
視程10km以上
天気現象運行に影響にある天気現象が終了
全天の4割程度の雲 雲底高度 910m
TAF COR UHWW 180200Z 1803/1903 35006MPS 9999 SCT030
TEMPO 1803/1809 35010MPS SCT020CB
FM181000 32003MPS 4000 HZ NSC
BECMG 1900/1901 9999 NSW SCT030